createdAt,value
2018-02-06T00:01:16.037Z,66.23
2018-02-06T00:03:43.597Z,57.40
2018-02-06T00:06:11.202Z,57.57
2018-02-06T00:08:38.793Z,56.97
2018-02-06T00:11:06.544Z,62.30
2018-02-06T00:13:34.128Z,59.40
2018-02-06T00:16:01.680Z,54.13
2018-02-06T00:18:29.231Z,54.10
2018-02-06T00:20:56.820Z,55.90
2018-02-06T00:23:24.372Z,52.73
2018-02-06T00:25:51.945Z,60.03
2018-02-06T00:28:19.555Z,60.37
2018-02-06T00:30:47.121Z,72.23
2018-02-06T00:33:14.701Z,52.13
2018-02-06T00:35:42.310Z,57.80
2018-02-06T00:38:09.875Z,54.30
2018-02-06T00:40:37.432Z,52.73
2018-02-06T00:43:05.054Z,55.67
2018-02-06T00:45:32.626Z,49.83
2018-02-06T00:48:00.206Z,51.50
2018-02-06T00:50:27.813Z,49.20
2018-02-06T00:52:55.400Z,46.90
2018-02-06T00:55:23.044Z,51.93
2018-02-06T00:57:50.631Z,52.77
2018-02-06T01:00:18.190Z,51.27
2018-02-06T01:02:45.763Z,56.57
2018-02-06T01:05:13.367Z,51.83
2018-02-06T01:07:40.934Z,44.97
2018-02-06T01:10:08.516Z,54.80
2018-02-06T01:12:36.110Z,51.60
2018-02-06T01:15:03.688Z,51.47
2018-02-06T01:17:31.285Z,54.47
2018-02-06T01:19:58.894Z,59.67
2018-02-06T01:22:26.464Z,59.63
2018-02-06T01:24:54.041Z,55.33
2018-02-06T01:27:21.660Z,52.93
2018-02-06T01:29:49.205Z,56.73
2018-02-06T01:32:16.940Z,53.80
2018-02-06T01:34:44.625Z,62.93
2018-02-06T01:37:12.271Z,61.10
2018-02-06T01:39:39.854Z,59.37
2018-02-06T01:42:07.532Z,65.37
2018-02-06T01:44:35.094Z,64.10
2018-02-06T01:47:02.766Z,71.63
2018-02-06T01:49:30.372Z,60.57
2018-02-06T01:51:57.945Z,64.07
2018-02-06T01:54:25.504Z,70.97
2018-02-06T01:56:53.106Z,55.03
2018-02-06T01:59:20.671Z,59.30
2018-02-06T02:01:48.230Z,77.27
2018-02-06T02:04:15.822Z,71.00
2018-02-06T02:06:43.382Z,66.00
2018-02-06T02:09:11.070Z,65.40
2018-02-06T02:11:38.692Z,71.70
2018-02-06T02:14:06.277Z,69.10
2018-02-06T02:16:33.884Z,69.90
2018-02-06T02:19:01.531Z,62.93
2018-02-06T02:21:29.093Z,64.10
2018-02-06T02:23:56.817Z,65.93
2018-02-06T02:26:24.418Z,78.33
2018-02-06T02:28:52.000Z,55.67
2018-02-06T02:31:19.592Z,56.10
2018-02-06T02:33:47.233Z,61.57
2018-02-06T02:36:14.816Z,55.73
2018-02-06T02:38:42.393Z,57.63
2018-02-06T02:41:10.008Z,65.97
2018-02-06T04:39:14.589Z,63.33
2018-02-06T04:41:42.156Z,55.00
2018-02-06T04:44:09.748Z,68.43
2018-02-06T04:46:37.367Z,53.07
2018-02-06T04:49:05.313Z,70.77
2018-02-06T04:51:33.054Z,62.90
2018-02-06T04:54:00.654Z,63.43
2018-02-06T04:56:28.219Z,60.42
2018-02-06T04:58:55.771Z,70.00
2018-02-06T05:01:23.375Z,61.57
2018-02-06T05:03:50.935Z,72.60
2018-02-06T05:06:18.566Z,63.10
2018-02-06T05:08:46.180Z,64.77
2018-02-06T05:11:13.894Z,74.40
2018-02-06T05:13:41.454Z,60.83
2018-02-06T05:16:09.069Z,67.47
2018-02-06T05:18:36.623Z,60.00
2018-02-06T05:21:04.188Z,62.40
2018-02-06T05:23:31.795Z,60.53
2018-02-06T05:25:59.372Z,57.30
2018-02-06T05:28:26.956Z,65.07
2018-02-06T05:30:54.558Z,66.37
2018-02-06T05:33:22.235Z,66.10
2018-02-06T05:35:49.901Z,58.10
2018-02-06T05:38:17.570Z,67.62
2018-02-06T05:40:45.149Z,60.73
2018-02-06T05:43:12.722Z,57.37
2018-02-06T05:45:40.349Z,50.80
2018-02-06T05:48:07.923Z,50.37
2018-02-06T05:50:35.500Z,47.13
2018-02-06T05:53:03.118Z,63.00
2018-02-06T05:55:30.706Z,53.77
2018-02-06T05:57:58.452Z,69.62
2018-02-06T06:00:26.067Z,44.23
2018-02-06T06:02:53.656Z,40.93
2018-02-06T06:05:21.236Z,45.23
2018-02-06T06:07:48.837Z,39.95
2018-02-06T06:10:16.424Z,41.23
2018-02-06T06:12:44.017Z,40.27
2018-02-06T06:15:11.638Z,32.00
2018-02-06T06:17:39.203Z,46.47
2018-02-06T06:20:06.776Z,43.80
2018-02-06T06:22:34.377Z,28.13
2018-02-06T06:25:01.944Z,34.50
2018-02-06T06:27:29.524Z,34.22
2018-02-06T06:29:57.136Z,39.30
2018-02-06T06:32:24.906Z,33.27
2018-02-06T06:34:52.520Z,34.03
2018-02-06T06:37:20.132Z,41.73
2018-02-06T06:39:47.700Z,39.77
2018-02-06T06:42:15.271Z,43.57
2018-02-06T06:44:42.878Z,51.63
2018-02-06T06:47:10.438Z,58.20
2018-02-06T06:49:38.008Z,59.30
2018-02-06T06:52:05.853Z,60.70
2018-02-06T06:54:33.430Z,56.53
2018-02-06T06:57:01.165Z,64.90
2018-02-06T06:59:28.775Z,66.33
2018-02-06T07:01:56.387Z,58.53
2018-02-06T07:04:23.981Z,69.17
2018-02-06T07:06:51.581Z,70.20
2018-02-06T07:09:19.155Z,53.60
2018-02-06T07:11:46.728Z,69.40
2018-02-06T07:14:14.322Z,71.30
2018-02-06T07:16:41.895Z,68.53
2018-02-06T07:19:09.479Z,86.03
2018-02-06T07:21:37.103Z,72.47
2018-02-06T07:24:04.673Z,64.60
2018-02-06T07:26:32.270Z,64.00
2018-02-06T07:29:00.060Z,65.40
2018-02-06T07:31:27.657Z,50.37
2018-02-06T07:33:55.224Z,53.53
2018-02-06T07:36:23.771Z,45.27
2018-02-06T07:38:51.353Z,45.80
2018-02-06T07:41:18.980Z,47.70
2018-02-06T07:43:46.599Z,44.50
2018-02-06T07:46:14.186Z,59.13
2018-02-06T07:48:41.790Z,54.17
2018-02-06T07:51:09.422Z,48.63
2018-02-06T07:53:37.004Z,55.47
2018-02-06T07:56:04.591Z,68.90
2018-02-06T07:58:32.198Z,79.73
2018-02-06T08:00:59.762Z,81.60
2018-02-06T08:03:27.351Z,76.33
2018-02-06T08:05:55.014Z,62.20
2018-02-06T08:08:22.655Z,74.07
2018-02-06T08:10:50.270Z,83.90
2018-02-06T08:13:17.894Z,81.57
2018-02-06T08:15:45.494Z,102.47
2018-02-06T08:18:13.088Z,105.47
2018-02-06T08:20:40.714Z,108.47
2018-02-06T08:23:08.288Z,93.07
2018-02-06T08:25:35.941Z,120.27
2018-02-06T08:28:03.565Z,73.10
2018-02-06T08:30:31.133Z,80.33
2018-02-06T08:32:58.694Z,76.53
2018-02-06T08:35:26.299Z,83.50
2018-02-06T08:37:53.876Z,86.17
2018-02-06T08:40:21.470Z,71.40
2018-02-06T08:42:49.094Z,68.63
2018-02-06T08:45:16.667Z,85.57
2018-02-06T08:47:44.263Z,83.27
2018-02-06T08:50:11.878Z,78.57
2018-02-06T08:52:39.475Z,76.40
2018-02-06T08:55:07.089Z,60.97
2018-02-06T08:57:34.751Z,60.50
2018-02-06T09:00:02.335Z,74.67
2018-02-06T09:02:29.907Z,50.57
2018-02-06T09:04:57.539Z,48.53
2018-02-06T09:07:25.119Z,55.87
2018-02-06T09:09:52.690Z,45.47
2018-02-06T09:12:20.305Z,41.60
2018-02-06T09:14:47.887Z,69.93
2018-02-06T09:17:15.476Z,51.00
2018-02-06T09:19:43.177Z,47.33
2018-02-06T09:22:10.759Z,52.10
2018-02-06T09:24:38.346Z,39.90
2018-02-06T09:27:05.946Z,42.10
2018-02-06T09:29:33.513Z,34.63
2018-02-06T09:32:01.100Z,38.53
2018-02-06T09:34:28.730Z,32.73
2018-02-06T09:36:56.314Z,30.07
2018-02-06T09:39:24.788Z,38.40
2018-02-06T09:41:52.398Z,43.17
2018-02-06T09:44:19.978Z,50.47
2018-02-06T09:46:47.553Z,43.50
2018-02-06T09:49:15.229Z,51.97
2018-02-06T09:51:42.809Z,37.70
2018-02-06T09:54:10.388Z,45.80
2018-02-06T09:56:37.988Z,46.57
2018-02-06T09:59:05.567Z,40.03
2018-02-06T10:01:33.273Z,45.23
2018-02-06T10:04:00.930Z,45.83
2018-02-06T10:06:28.500Z,48.60
2018-02-06T10:08:56.074Z,53.13
2018-02-06T10:11:23.696Z,42.93
2018-02-06T10:13:51.374Z,36.57
2018-02-06T10:16:18.949Z,34.93
2018-02-06T10:18:46.545Z,51.60
2018-02-06T10:21:14.165Z,22.07
2018-02-06T10:23:41.730Z,22.27
2018-02-06T10:26:09.341Z,21.83
2018-02-06T10:28:36.916Z,31.20
2018-02-06T10:31:04.493Z,32.47
2018-02-06T10:33:32.098Z,25.50
2018-02-06T10:35:59.665Z,13.47
2018-02-06T10:38:27.227Z,12.30
2018-02-06T10:40:54.841Z,12.67
2018-02-06T10:43:22.401Z,13.10
2018-02-06T10:45:49.971Z,19.40
2018-02-06T10:48:17.623Z,15.33
2018-02-06T10:50:45.183Z,9.83
2018-02-06T10:53:12.910Z,9.50
2018-02-06T10:55:40.529Z,14.53
2018-02-06T10:58:08.164Z,12.20
2018-02-06T11:00:35.857Z,31.83
2018-02-06T11:03:03.451Z,10.37
2018-02-06T11:05:31.098Z,8.43
2018-02-06T11:07:58.661Z,15.83
2018-02-06T11:10:26.263Z,8.60
2018-02-06T11:12:53.892Z,19.67
2018-02-06T11:15:21.447Z,9.73
2018-02-06T11:17:49.042Z,18.73
2018-02-06T11:20:16.638Z,17.33
2018-02-06T11:22:44.192Z,18.13
2018-02-06T11:25:11.810Z,11.13
2018-02-06T11:27:39.379Z,9.57
2018-02-06T11:30:07.006Z,9.10
2018-02-06T11:32:34.653Z,15.80
2018-02-06T11:35:02.227Z,14.10
2018-02-06T11:37:29.788Z,10.37
2018-02-06T11:39:57.386Z,16.13
2018-02-06T11:42:25.031Z,11.90
2018-02-06T11:44:52.623Z,21.53
2018-02-06T11:47:20.239Z,11.77
2018-02-06T11:49:47.806Z,17.40
2018-02-06T11:52:15.384Z,22.93
2018-02-06T11:54:42.966Z,21.37
2018-02-06T11:57:10.533Z,11.47
2018-02-06T11:59:38.145Z,9.80
2018-02-06T12:02:05.746Z,9.83
2018-02-06T12:04:33.299Z,9.93
2018-02-06T12:07:00.864Z,11.43
2018-02-06T12:09:28.800Z,11.53
2018-02-06T12:11:56.359Z,11.77
2018-02-06T12:14:23.922Z,10.50
2018-02-06T12:16:51.534Z,10.50
2018-02-06T12:19:19.109Z,19.50
2018-02-06T12:21:46.681Z,18.20
2018-02-06T12:24:14.312Z,14.70
2018-02-06T12:26:41.919Z,12.80
2018-02-06T12:29:09.561Z,13.20
2018-02-06T12:31:37.257Z,10.80
2018-02-06T12:34:04.910Z,14.60
2018-02-06T12:36:32.479Z,15.80
2018-02-06T12:39:00.085Z,10.10
2018-02-06T12:41:27.770Z,10.20
2018-02-06T12:43:55.323Z,8.83
2018-02-06T12:46:22.911Z,13.60
2018-02-06T12:48:50.465Z,11.90
2018-02-06T12:51:18.032Z,11.93
2018-02-06T12:53:45.617Z,17.87
2018-02-06T12:56:13.207Z,11.40
2018-02-06T12:58:40.799Z,12.50
2018-02-06T13:01:08.380Z,15.00
2018-02-06T13:03:35.935Z,17.87
2018-02-06T13:06:03.507Z,11.03
2018-02-06T13:08:31.087Z,10.87
2018-02-06T13:10:59.508Z,10.00
2018-02-06T13:13:27.076Z,9.53
2018-02-06T13:15:54.679Z,14.03
2018-02-06T13:18:22.290Z,12.37
2018-02-06T13:20:49.836Z,17.20
2018-02-06T13:23:17.437Z,15.93
2018-02-06T13:25:45.278Z,15.40
2018-02-06T13:28:12.823Z,21.53
2018-02-06T13:30:40.429Z,16.47
2018-02-06T13:33:08.005Z,22.43
2018-02-06T13:35:35.564Z,14.20
2018-02-06T13:38:03.163Z,12.07
2018-02-06T13:40:30.731Z,16.27
2018-02-06T13:42:58.292Z,17.17
2018-02-06T13:45:25.905Z,16.23
2018-02-06T13:47:53.472Z,14.87
2018-02-06T13:50:21.046Z,40.33
2018-02-06T13:52:48.631Z,14.17
2018-02-06T13:55:16.242Z,11.90
2018-02-06T13:57:48.524Z,14.23
2018-02-06T14:00:16.146Z,20.77
2018-02-06T14:02:43.699Z,23.40
2018-02-06T14:05:11.270Z,32.63
2018-02-06T14:07:38.841Z,30.77
2018-02-06T14:10:06.390Z,21.23
2018-02-06T14:12:34.042Z,35.17
2018-02-06T14:15:01.644Z,19.40
2018-02-06T14:17:29.241Z,26.50
2018-02-06T14:19:56.875Z,28.63
2018-02-06T14:22:24.442Z,26.97
2018-02-06T14:24:51.993Z,23.97
2018-02-06T14:27:19.579Z,30.73
2018-02-06T14:29:47.223Z,25.93
2018-02-06T14:32:14.805Z,25.83
2018-02-06T14:34:42.519Z,36.53
2018-02-06T14:37:10.131Z,31.10
2018-02-06T14:39:37.717Z,29.13
2018-02-06T14:42:05.339Z,37.30
2018-02-06T14:44:32.911Z,22.53
2018-02-06T14:47:00.476Z,53.97
2018-02-06T14:49:28.095Z,20.73
2018-02-06T14:51:55.650Z,41.67
2018-02-06T14:54:23.244Z,50.50
2018-02-06T14:56:50.943Z,42.27
2018-02-06T14:59:18.496Z,38.53
2018-02-06T15:01:46.066Z,19.60
2018-02-06T15:04:13.759Z,36.33
2018-02-06T15:06:41.349Z,25.40
2018-02-06T15:09:08.920Z,25.70
2018-02-06T15:11:36.525Z,20.80
2018-02-06T15:14:04.129Z,29.23
2018-02-06T15:16:31.753Z,76.00
2018-02-06T15:18:59.350Z,44.80
2018-02-06T15:21:26.930Z,38.27
2018-02-06T15:23:54.521Z,23.43
2018-02-06T15:26:22.186Z,37.57
2018-02-06T15:28:49.892Z,28.30
2018-02-06T15:31:17.471Z,29.47
2018-02-06T15:33:45.081Z,30.87
2018-02-06T15:36:12.849Z,49.03
2018-02-06T15:38:40.421Z,42.13
2018-02-06T15:41:08.105Z,37.10
2018-02-06T15:43:35.687Z,40.27
2018-02-06T15:46:03.299Z,30.40
2018-02-06T15:48:30.901Z,34.40
2018-02-06T15:50:58.485Z,28.27
2018-02-06T15:53:26.068Z,31.23
2018-02-06T15:55:53.654Z,30.37
2018-02-06T15:58:21.206Z,32.33
2018-02-06T16:00:49.476Z,28.13
2018-02-06T16:03:17.072Z,27.20
2018-02-06T16:05:44.659Z,53.33
2018-02-06T16:08:12.249Z,42.50
2018-02-06T16:10:39.869Z,22.30
2018-02-06T16:13:07.428Z,27.17
2018-02-06T16:15:35.189Z,21.07
2018-02-06T16:18:02.929Z,35.47
2018-02-06T16:20:30.487Z,27.27
2018-02-06T16:22:58.141Z,33.40
2018-02-06T16:25:25.889Z,28.10
2018-02-06T16:27:53.461Z,36.33
2018-02-06T16:30:21.049Z,18.90
2018-02-06T16:32:48.655Z,33.40
2018-02-06T16:35:16.228Z,17.60
2018-02-06T16:37:43.810Z,29.23
2018-02-06T16:40:11.463Z,27.97
2018-02-06T16:42:39.026Z,31.03
2018-02-06T16:45:06.588Z,28.87
2018-02-06T16:47:34.200Z,24.20
2018-02-06T16:50:01.775Z,22.40
2018-02-06T16:52:29.345Z,26.10
2018-02-06T16:54:56.942Z,29.97
2018-02-06T16:57:24.510Z,29.40
2018-02-06T16:59:52.086Z,27.10
2018-02-06T17:02:31.262Z,28.10
2018-02-06T17:04:58.824Z,24.80
2018-02-06T17:07:26.389Z,59.40
2018-02-06T17:09:53.991Z,36.87
2018-02-06T17:12:21.707Z,29.60
2018-02-06T17:14:49.264Z,20.23
2018-02-06T17:17:16.853Z,19.23
2018-02-06T17:19:44.430Z,20.93
2018-02-06T17:22:12.029Z,22.23
2018-02-06T17:24:39.605Z,36.57
2018-02-06T17:27:07.170Z,25.97
2018-02-06T17:29:34.734Z,23.93
2018-02-06T17:32:02.376Z,27.27
2018-02-06T17:34:29.935Z,23.07
2018-02-06T17:36:57.545Z,25.43
2018-02-06T17:39:25.173Z,27.17
2018-02-06T17:41:52.736Z,23.17
2018-02-06T17:44:20.311Z,26.10
2018-02-06T17:46:47.929Z,43.97
2018-02-06T17:49:15.480Z,30.70
2018-02-06T17:51:43.075Z,25.57
2018-02-06T17:54:10.679Z,37.23
2018-02-06T17:56:38.234Z,36.00
2018-02-06T17:59:05.783Z,23.67
2018-02-06T18:01:33.392Z,32.83
2018-02-06T18:04:00.942Z,25.73
2018-02-06T18:06:28.589Z,25.47
2018-02-06T18:08:56.206Z,26.07
2018-02-06T18:11:23.751Z,29.17
2018-02-06T18:13:51.310Z,20.03
2018-02-06T18:16:18.907Z,21.03
2018-02-06T18:18:46.552Z,24.00
2018-02-06T18:21:14.124Z,17.80
2018-02-06T18:23:41.735Z,24.87
2018-02-06T18:26:09.285Z,23.27
2018-02-06T18:28:36.867Z,31.10
2018-02-06T18:31:04.464Z,25.60
2018-02-06T18:33:32.036Z,16.83
2018-02-06T18:35:59.611Z,26.33
2018-02-06T18:38:27.248Z,25.37
2018-02-06T18:40:54.922Z,34.60
2018-02-06T18:43:22.514Z,32.23
2018-02-06T18:45:50.140Z,33.40
2018-02-06T18:48:17.727Z,31.33
2018-02-06T18:50:45.290Z,34.20
2018-02-06T18:53:12.899Z,37.80
2018-02-06T18:55:40.480Z,38.57
2018-02-06T18:58:08.085Z,35.40
2018-02-06T19:00:35.690Z,27.80
2018-02-06T19:03:03.269Z,36.40
2018-02-06T19:05:30.906Z,23.77
2018-02-06T19:07:58.631Z,26.70
2018-02-06T19:10:26.229Z,20.50
2018-02-06T19:12:53.804Z,25.50
2018-02-06T19:15:21.435Z,23.93
2018-02-06T19:17:49.042Z,25.30
2018-02-06T19:20:16.673Z,25.00
2018-02-06T19:22:44.724Z,23.40
2018-02-06T19:25:12.391Z,21.80
2018-02-06T19:27:39.950Z,25.20
2018-02-06T19:30:07.582Z,26.60
2018-02-06T19:32:35.162Z,36.70
2018-02-06T19:35:02.757Z,34.23
2018-02-06T19:37:30.333Z,22.63
2018-02-06T19:39:57.962Z,22.13
2018-02-06T19:42:25.532Z,34.60
2018-02-06T19:44:53.166Z,21.63
2018-02-06T19:47:20.753Z,27.43
2018-02-06T19:49:48.375Z,30.23
2018-02-06T19:52:15.974Z,31.10
2018-02-06T19:54:43.559Z,21.47
2018-02-06T19:57:11.109Z,28.63
2018-02-06T19:59:38.694Z,28.53
2018-02-06T20:02:06.243Z,26.40
2018-02-06T20:04:33.793Z,19.57
2018-02-06T20:07:01.375Z,24.00
2018-02-06T20:09:28.947Z,22.17
2018-02-06T20:11:56.499Z,27.20
2018-02-06T20:14:24.077Z,20.80
2018-02-06T20:16:51.632Z,30.00
2018-02-06T20:19:19.196Z,28.93
2018-02-06T20:21:46.803Z,26.20
2018-02-06T20:24:14.374Z,16.47
2018-02-06T20:26:41.937Z,28.20
2018-02-06T20:29:09.552Z,20.23
2018-02-06T20:31:37.122Z,26.50
2018-02-06T20:34:04.696Z,30.30
2018-02-06T20:36:32.293Z,18.37
2018-02-06T20:38:59.858Z,23.70
2018-02-06T20:41:27.417Z,36.40
2018-02-06T20:43:55.123Z,32.23
2018-02-06T20:46:22.715Z,34.87
2018-02-06T20:48:50.280Z,25.43
2018-02-06T20:51:17.872Z,27.10
2018-02-06T20:53:45.450Z,23.20
2018-02-06T20:56:13.952Z,22.50
2018-02-06T20:58:41.556Z,23.03
2018-02-06T21:01:09.170Z,29.37
2018-02-06T21:03:36.774Z,29.70
2018-02-06T21:06:04.493Z,32.27
2018-02-06T21:08:32.685Z,29.27
2018-02-06T21:11:01.745Z,24.30
2018-02-06T21:13:30.973Z,27.57
2018-02-06T21:16:00.669Z,25.40
2018-02-06T21:18:29.499Z,39.10
2018-02-06T21:20:57.202Z,32.43
2018-02-06T21:23:24.765Z,19.80
2018-02-06T21:25:52.339Z,21.30
2018-02-06T21:28:19.943Z,29.20
2018-02-06T21:30:47.500Z,27.13
2018-02-06T21:33:15.056Z,29.37
2018-02-06T21:35:42.641Z,29.67
2018-02-06T21:38:10.212Z,25.00
2018-02-06T21:40:37.794Z,33.37
2018-02-06T21:43:05.441Z,26.17
2018-02-06T21:45:33.006Z,29.17
2018-02-06T21:48:00.580Z,30.00
2018-02-06T21:50:28.175Z,35.77
2018-02-06T21:52:55.739Z,32.40
2018-02-06T21:55:23.302Z,29.50
2018-02-06T21:57:50.905Z,27.13
2018-02-06T22:00:18.468Z,24.97
2018-02-06T22:02:46.045Z,19.80
2018-02-06T22:05:13.721Z,22.10
2018-02-06T22:07:41.282Z,24.60
2018-02-06T22:10:08.824Z,22.13
2018-02-06T22:12:36.421Z,20.10
2018-02-06T22:15:04.000Z,22.83
2018-02-06T22:17:31.550Z,20.97
2018-02-06T22:19:59.138Z,24.87
2018-02-06T22:22:26.687Z,29.47
2018-02-06T22:24:54.240Z,18.60
2018-02-06T22:27:21.854Z,18.97
2018-02-06T22:29:49.411Z,21.50
2018-02-06T22:32:16.986Z,19.50
2018-02-06T22:34:44.590Z,19.40
2018-02-06T22:37:12.226Z,19.07
2018-02-06T22:39:39.861Z,13.97
2018-02-06T22:42:07.678Z,20.10
2018-02-06T22:44:35.240Z,18.70
2018-02-06T22:47:02.800Z,25.93
2018-02-06T22:49:30.389Z,19.63
2018-02-06T22:51:57.933Z,19.07
2018-02-06T22:54:25.496Z,30.33
2018-02-06T22:56:53.083Z,33.90
2018-02-06T22:59:20.652Z,19.30
2018-02-06T23:01:48.210Z,20.23
2018-02-06T23:04:15.845Z,25.63
2018-02-06T23:06:43.430Z,27.13
2018-02-06T23:09:11.031Z,24.93
2018-02-06T23:11:38.626Z,28.43
2018-02-06T23:14:06.208Z,19.70
2018-02-06T23:16:33.765Z,13.53
2018-02-06T23:19:01.367Z,24.40
2018-02-06T23:21:28.934Z,25.20
2018-02-06T23:23:56.514Z,25.30
2018-02-06T23:26:24.123Z,30.47
2018-02-06T23:28:51.688Z,27.97
2018-02-06T23:31:19.255Z,18.80
2018-02-06T23:33:46.924Z,14.83
2018-02-06T23:36:14.486Z,25.10
2018-02-06T23:38:42.058Z,22.33
2018-02-06T23:41:09.664Z,27.60
2018-02-06T23:43:37.256Z,22.77
2018-02-06T23:46:04.809Z,27.10
2018-02-06T23:48:32.441Z,24.63
2018-02-06T23:51:00.015Z,20.80
2018-02-06T23:53:27.590Z,21.27
2018-02-06T23:55:55.205Z,17.63
2018-02-06T23:58:22.772Z,26.13
